Time;durP1;ratioP1;P1;durP2;ratioP2;P2;SDS_P1;SDS_P2;PMS_P1;PMS_P2;Temp;Humidity;BMP_temperature;BMP_pressure;BME280_temperature;BME280_humidity;BME280_pressure;Samples;Min_cycle;Max_cycle;Signal;HPM_P1;HPM_P2
2021/12/13 00:01:45;;;;;;;;;;;;;;;;;;12753954;27;20034;-76
2021/12/13 00:07:53;;;;;;;20.63;18.67;;;;;;;;;;12753162;27;20292;-76
2021/12/13 00:13:58;;;;;;;20.90;18.98;;;;;;;;;;12718052;27;20057;-77
2021/12/13 00:20:12;;;;;;;20.95;18.95;;;;;;;;;;12733437;27;20031;-76
2021/12/13 00:26:21;;;;;;;18.55;16.85;;;;;;;;;;12752432;27;20027;-76
2021/12/13 00:32:29;;;;;;;20.77;18.67;;;;;;;;;;12751684;27;20039;-76
2021/12/13 00:38:35;;;;;;;19.40;17.55;;;;;;;;;;12733232;27;20507;-76
2021/12/13 00:44:39;;;;;;;18.38;16.67;;;;;;;;;;12751514;27;20480;-76
2021/12/13 00:50:50;;;;;;;20.25;18.40;;;;;;;;;;12751274;27;20055;-76
2021/12/13 00:57:04;;;;;;;19.52;17.63;;;;;;;;;;12750844;27;20507;-76
2021/12/13 01:03:12;;;;;;;19.85;17.85;;;;;;;;;;12715301;27;20384;-76
2021/12/13 01:09:23;;;;;;;20.05;18.20;;;;;;;;;;12750139;27;20038;-76
2021/12/13 01:15:34;;;;;;;19.17;17.27;;;;;;;;;;12714421;27;20480;-76
2021/12/13 01:21:53;;;;;;;24.92;22.55;;;;;;;;;;12750103;27;20035;-77
2021/12/13 01:27:58;;;;;;;27.00;24.35;;;;;;;;;;12749065;27;20035;-76
2021/12/13 01:34:02;;;;;;;24.83;22.40;;;;;;;;;;12730378;27;20050;-77
2021/12/13 01:40:07;;;;;;;23.02;20.63;;;;;;;;;;12730280;27;20039;-76
2021/12/13 01:46:09;;;;;;;23.02;20.83;;;;;;;;;;12729880;27;20035;-76
2021/12/13 01:52:31;;;;;;;21.57;19.57;;;;;;;;;;12729588;27;20047;-77
2021/12/13 02:04:35;;;;;;;20.00;18.10;;;;;;;;;;12728980;27;20049;-77
2021/12/13 02:10:50;;;;;;;21.53;19.40;;;;;;;;;;12711497;27;20528;-76
2021/12/13 02:23:00;;;;;;;19.77;17.98;;;;;;;;;;12727964;27;20049;-77
2021/12/13 02:29:06;;;;;;;21.52;19.48;;;;;;;;;;12728001;27;20038;-77
2021/12/13 02:35:09;;;;;;;21.88;19.95;;;;;;;;;;12710771;27;20039;-76
2021/12/13 02:41:11;;;;;;;;;;;;;;;;;;12727839;27;20494;-77
2021/12/13 02:47:20;;;;;;;23.00;20.60;;;;;;;;;;12727406;27;19908;-76
2021/12/13 02:53:25;;;;;;;20.02;17.98;;;;;;;;;;12727262;27;20051;-77
2021/12/13 02:59:31;;;;;;;18.48;16.77;;;;;;;;;;12711402;28;20419;-76
2021/12/13 03:05:39;;;;;;;23.23;20.88;;;;;;;;;;12727063;28;20042;-76
2021/12/13 03:11:42;;;;;;;20.67;18.67;;;;;;;;;;12726937;28;20043;-77
2021/12/13 03:17:45;;;;;;;17.67;15.88;;;;;;;;;;12745024;28;20042;-77
2021/12/13 03:23:59;;;;;;;20.10;17.63;;;;;;;;;;12727267;28;20485;-77
2021/12/13 03:30:01;;;;;;;19.40;17.45;;;;;;;;;;12708850;28;20472;-76
2021/12/13 03:36:07;;;;;;;18.00;16.30;;;;;;;;;;12726151;28;20034;-77
2021/12/13 03:42:10;;;;;;;16.80;15.18;;;;;;;;;;12744444;28;20380;-77
2021/12/13 03:48:15;;;;;;;17.27;15.55;;;;;;;;;;12725891;28;20031;-76
2021/12/13 03:54:18;;;;;;;17.00;15.30;;;;;;;;;;12745351;27;20399;-77
2021/12/13 04:00:23;;;;;;;22.33;19.98;;;;;;;;;;12718063;27;20038;-76
2021/12/13 04:06:24;;;;;;;22.52;20.38;;;;;;;;;;12752938;27;20027;-77
2021/12/13 04:12:37;;;;;;;20.38;18.50;;;;;;;;;;12718123;27;20043;-77
2021/12/13 04:19:25;;;;;;;;;;;;;;;;;;12752950;27;20027;-77
2021/12/13 04:25:04;;;;;;;17.20;15.52;;;;;;;;;;12720067;27;19911;-77
2021/12/13 04:31:08;;;;;;;16.65;15.05;;;;;;;;;;12716587;27;20514;-77
2021/12/13 04:37:13;;;;;;;16.90;15.13;;;;;;;;;;12716432;27;20043;-77
2021/12/13 04:43:16;;;;;;;16.52;14.93;;;;;;;;;;12716462;27;20035;-77
2021/12/13 04:49:19;;;;;;;14.50;13.30;;;;;;;;;;12751080;27;20108;-76
2021/12/13 04:55:27;;;;;;;17.75;15.95;;;;;;;;;;12732976;27;20039;-75
2021/12/13 05:01:29;;;;;;;17.63;16.00;;;;;;;;;;12750787;27;20047;-75
2021/12/13 05:07:32;;;;;;;15.40;13.98;;;;;;;;;;12750332;27;20034;-75
2021/12/13 05:13:37;;;;;;;15.05;13.65;;;;;;;;;;12749993;27;20043;-75
2021/12/13 05:19:40;;;;;;;14.63;13.23;;;;;;;;;;12732014;27;20038;-74
2021/12/13 05:25:43;;;;;;;16.40;14.80;;;;;;;;;;12749366;27;20039;-74
2021/12/13 05:31:51;;;;;;;14.13;12.82;;;;;;;;;;12749420;27;20388;-74
2021/12/13 05:37:54;;;;;;;14.55;13.15;;;;;;;;;;12730757;27;20396;-74
2021/12/13 05:43:58;;;;;;;14.52;13.18;;;;;;;;;;12730426;27;20046;-74
2021/12/13 05:50:00;;;;;;;12.02;10.98;;;;;;;;;;12748167;27;20039;-74
2021/12/13 05:56:12;;;;;;;13.75;12.45;;;;;;;;;;12747759;27;20069;-73
2021/12/13 06:02:19;;;;;;;14.80;13.30;;;;;;;;;;12747651;27;20050;-73
2021/12/13 06:08:23;;;;;;;14.43;13.13;;;;;;;;;;12747194;27;20468;-74
2021/12/13 06:14:27;;;;;;;13.27;12.07;;;;;;;;;;12746961;27;20395;-73
2021/12/13 06:20:31;;;;;;;12.60;11.40;;;;;;;;;;12746237;27;20024;-73
2021/12/13 06:26:33;;;;;;;13.27;12.00;;;;;;;;;;12728180;27;20050;-74
2021/12/13 06:32:35;;;;;;;13.63;12.33;;;;;;;;;;12717435;27;20507;-73
2021/12/13 06:38:48;;;;;;;13.35;12.10;;;;;;;;;;12693143;27;20035;-73
2021/12/13 06:44:50;;;;;;;13.57;12.25;;;;;;;;;;12706319;27;20034;-74
2021/12/13 06:50:52;;;;;;;13.00;11.70;;;;;;;;;;12736202;27;20050;-75
2021/12/13 06:57:00;;;;;;;12.75;11.55;;;;;;;;;;12734840;27;20050;-75
2021/12/13 07:03:03;;;;;;;13.35;12.07;;;;;;;;;;12735292;28;20027;-75
2021/12/13 07:09:15;;;;;;;13.75;12.40;;;;;;;;;;12735962;28;20015;-74
2021/12/13 07:15:23;;;;;;;12.02;10.93;;;;;;;;;;12717344;28;20054;-75
2021/12/13 07:21:27;;;;;;;14.07;12.40;;;;;;;;;;12693973;27;20031;-74
2021/12/13 07:27:32;;;;;;;12.07;10.95;;;;;;;;;;12700357;27;20023;-75
2021/12/13 07:33:36;;;;;;;13.02;11.73;;;;;;;;;;12725596;27;20480;-75
2021/12/13 07:39:38;;;;;;;13.30;12.05;;;;;;;;;;12733557;27;20472;-75
2021/12/13 07:45:43;;;;;;;14.00;12.65;;;;;;;;;;12701577;27;20015;-76
2021/12/13 07:51:50;;;;;;;14.25;12.95;;;;;;;;;;12725897;27;20492;-75
2021/12/13 07:57:52;;;;;;;13.93;12.52;;;;;;;;;;12722646;27;20051;-75
2021/12/13 08:03:57;;;;;;;15.63;13.32;;;;;;;;;;12700384;27;20031;-75
2021/12/13 08:10:07;;;;;;;12.48;11.18;;;;;;;;;;12709604;27;20019;-75
2021/12/13 08:16:09;;;;;;;13.70;12.38;;;;;;;;;;12725402;27;20038;-75
2021/12/13 08:22:17;;;;;;;17.88;16.13;;;;;;;;;;12698311;27;20039;-74
2021/12/13 08:28:20;;;;;;;12.48;11.35;;;;;;;;;;12723322;27;20046;-75
2021/12/13 08:34:26;;;;;;;12.90;11.55;;;;;;;;;;12731480;27;20035;-74
2021/12/13 08:40:30;;;;;;;13.88;10.98;;;;;;;;;;12711222;27;20043;-75
2021/12/13 08:46:40;;;;;;;11.88;9.90;;;;;;;;;;12696929;27;20380;-74
2021/12/13 08:52:43;;;;;;;11.68;10.52;;;;;;;;;;12707783;27;20044;-75
2021/12/13 08:58:44;;;;;;;;;;;;;;;;;;12735862;27;20024;-74
2021/12/13 09:04:58;;;;;;;8.75;7.93;;;;;;;;;;12729812;27;19907;-75
2021/12/13 09:10:59;;;;;;;10.98;10.07;;;;;;;;;;12719995;27;20024;-75
2021/12/13 09:17:07;;;;;;;10.60;9.50;;;;;;;;;;12713799;27;20392;-74
2021/12/13 09:23:09;;;;;;;11.20;10.10;;;;;;;;;;12718120;27;20032;-74
2021/12/13 09:29:16;;;;;;;11.18;10.07;;;;;;;;;;12718627;27;20040;-74
2021/12/13 09:35:21;;;;;;;10.25;9.20;;;;;;;;;;12700208;27;20050;-77
2021/12/13 09:41:27;;;;;;;11.07;9.98;;;;;;;;;;12696427;27;20295;-74
2021/12/13 09:47:35;;;;;;;10.40;9.30;;;;;;;;;;12710359;27;20277;-75
2021/12/13 09:53:38;;;;;;;10.60;9.57;;;;;;;;;;12707030;27;20406;-74
2021/12/13 09:59:48;;;;;;;9.30;8.38;;;;;;;;;;12691779;27;20031;-75
2021/12/13 10:05:53;;;;;;;9.60;8.70;;;;;;;;;;12714538;27;20042;-75
2021/12/13 10:11:54;;;;;;;9.50;7.40;;;;;;;;;;12701470;27;20031;-75
2021/12/13 10:17:58;;;;;;;10.45;9.43;;;;;;;;;;12697246;27;20040;-74
2021/12/13 10:24:04;;;;;;;10.13;9.13;;;;;;;;;;12677586;27;20035;-75
2021/12/13 10:30:09;;;;;;;10.32;9.23;;;;;;;;;;12693021;27;20292;-75
2021/12/13 10:36:12;;;;;;;8.40;7.28;;;;;;;;;;12708541;27;20062;-75
2021/12/13 10:42:16;;;;;;;8.43;7.63;;;;;;;;;;12718408;27;20035;-75
2021/12/13 10:48:18;;;;;;;6.57;5.97;;;;;;;;;;12707284;27;20031;-75
2021/12/13 10:54:20;;;;;;;6.90;6.22;;;;;;;;;;12698203;27;20046;-75
2021/12/13 11:00:24;;;;;;;5.82;5.32;;;;;;;;;;12706751;27;20039;-75
2021/12/13 11:06:26;;;;;;;7.13;6.43;;;;;;;;;;12713963;28;20039;-75
2021/12/13 11:12:33;;;;;;;6.80;6.13;;;;;;;;;;12696965;28;20035;-75
2021/12/13 11:18:35;;;;;;;6.57;5.95;;;;;;;;;;12702477;27;20034;-75
2021/12/13 11:24:39;;;;;;;6.30;5.72;;;;;;;;;;12670704;28;20038;-76
2021/12/13 11:30:43;;;;;;;6.10;5.50;;;;;;;;;;12687021;28;20027;-75
2021/12/13 11:37:04;;;;;;;6.57;5.97;;;;;;;;;;12715082;28;20047;-76
2021/12/13 11:43:05;;;;;;;7.28;6.57;;;;;;;;;;12689178;28;20043;-76
2021/12/13 11:49:25;;;;;;;7.05;6.35;;;;;;;;;;12711903;27;20049;-75
2021/12/13 11:55:45;;;;;;;7.38;6.68;;;;;;;;;;12723635;28;20043;-76
2021/12/13 12:01:52;;;;;;;10.05;8.73;;;;;;;;;;12688898;28;20034;-75
2021/12/13 12:08:06;;;;;;;5.32;4.80;;;;;;;;;;12687546;28;20030;-75
2021/12/13 12:14:11;;;;;;;8.40;7.25;;;;;;;;;;12694242;27;20372;-75
2021/12/13 12:20:18;;;;;;;6.35;5.65;;;;;;;;;;12714556;27;20479;-75
2021/12/13 12:26:20;;;;;;;7.72;6.10;;;;;;;;;;12721876;27;20030;-76
2021/12/13 12:32:23;;;;;;;6.13;5.43;;;;;;;;;;12751600;27;20031;-76
2021/12/13 12:38:25;;;;;;;14.93;13.55;;;;;;;;;;12733636;27;20399;-76
2021/12/13 12:44:38;;;;;;;7.85;7.05;;;;;;;;;;12733132;27;20513;-76
2021/12/13 12:50:42;;;;;;;6.60;4.90;;;;;;;;;;12732076;27;20047;-75
2021/12/13 12:56:44;;;;;;;6.97;6.28;;;;;;;;;;12715433;27;20047;-75
2021/12/13 13:02:46;;;;;;;9.02;7.35;;;;;;;;;;12732296;27;20046;-82
2021/12/13 13:08:51;;;;;;;6.85;6.15;;;;;;;;;;12715805;27;20488;-82
2021/12/13 13:14:54;;;;;;;9.02;7.57;;;;;;;;;;12715169;27;20054;-83
2021/12/13 13:21:02;;;;;;;8.50;7.60;;;;;;;;;;12731952;27;20030;-76
2021/12/13 13:27:04;;;;;;;9.15;7.18;;;;;;;;;;12725287;27;20031;-76
2021/12/13 13:33:07;;;;;;;10.15;9.13;;;;;;;;;;12746722;27;20049;-75
2021/12/13 13:39:29;;;;;;;8.85;7.95;;;;;;;;;;12703284;27;20027;-75
2021/12/13 13:45:35;;;;;;;7.97;7.20;;;;;;;;;;12697714;28;20034;-75
2021/12/13 13:51:37;;;;;;;6.03;5.30;;;;;;;;;;12724130;27;20062;-75
2021/12/13 13:57:39;;;;;;;7.07;5.80;;;;;;;;;;12708163;27;20047;-75
2021/12/13 14:03:44;;;;;;;6.90;6.20;;;;;;;;;;12691947;28;20035;-75
2021/12/13 14:09:47;;;;;;;6.88;6.00;;;;;;;;;;12678852;28;20035;-75
2021/12/13 14:15:51;;;;;;;7.88;6.43;;;;;;;;;;12678264;28;20419;-75
2021/12/13 14:21:53;;;;;;;6.10;4.90;;;;;;;;;;12661763;28;20028;-74
2021/12/13 14:27:55;;;;;;;8.13;6.47;;;;;;;;;;12695673;28;20345;-75
2021/12/13 14:33:57;;;;;;;8.82;7.43;;;;;;;;;;12677572;28;20054;-74
2021/12/13 14:39:59;;;;;;;10.43;9.23;;;;;;;;;;12676704;28;20036;-75
2021/12/13 14:46:02;;;;;;;10.23;7.70;;;;;;;;;;12695088;28;20032;-75
2021/12/13 14:52:06;;;;;;;17.35;12.15;;;;;;;;;;12694612;28;20304;-74
2021/12/13 14:58:13;;;;;;;19.70;12.75;;;;;;;;;;12694347;28;20059;-74
2021/12/13 15:04:23;;;;;;;13.98;9.93;;;;;;;;;;12659427;28;20027;-75
2021/12/13 15:10:29;;;;;;;11.57;8.90;;;;;;;;;;12676076;28;20028;-74
2021/12/13 15:16:36;;;;;;;10.20;8.07;;;;;;;;;;12693922;28;20072;-74
2021/12/13 15:22:51;;;;;;;11.32;6.95;;;;;;;;;;12694638;28;20392;-75
2021/12/13 15:29:01;;;;;;;10.45;7.50;;;;;;;;;;12693907;28;20043;-74
2021/12/13 15:35:06;;;;;;;9.45;7.45;;;;;;;;;;12694032;28;20484;-74
2021/12/13 15:41:10;;;;;;;9.25;6.85;;;;;;;;;;12675309;28;20036;-74
2021/12/13 15:47:11;;;;;;;8.55;7.32;;;;;;;;;;12659048;28;20047;-75
2021/12/13 15:53:13;;;;;;;10.70;7.40;;;;;;;;;;12699950;28;20515;-75
2021/12/13 15:59:17;;;;;;;7.50;6.05;;;;;;;;;;12684612;28;20070;-75
2021/12/13 16:05:21;;;;;;;10.25;7.82;;;;;;;;;;12703221;28;20037;-75
2021/12/13 16:11:27;;;;;;;7.15;6.45;;;;;;;;;;12702248;27;20047;-74
2021/12/13 16:17:31;;;;;;;10.07;6.45;;;;;;;;;;12683692;28;20043;-76
2021/12/13 16:23:33;;;;;;;8.50;5.47;;;;;;;;;;12701536;28;20036;-75
2021/12/13 16:29:38;;;;;;;8.07;6.20;;;;;;;;;;12701816;28;20035;-75
2021/12/13 16:35:42;;;;;;;6.38;5.40;;;;;;;;;;12683089;28;20050;-75
2021/12/13 16:41:45;;;;;;;7.45;6.68;;;;;;;;;;12682832;28;20047;-76
2021/12/13 16:47:47;;;;;;;6.80;5.63;;;;;;;;;;12682538;28;20053;-75
2021/12/13 16:53:49;;;;;;;9.68;7.78;;;;;;;;;;12664814;28;20058;-75
2021/12/13 16:59:52;;;;;;;7.55;5.95;;;;;;;;;;12699733;28;20039;-75
2021/12/13 17:06:02;;;;;;;9.90;6.75;;;;;;;;;;12682033;28;20035;-75
2021/12/13 17:12:06;;;;;;;6.63;5.80;;;;;;;;;;12681335;28;20032;-75
2021/12/13 17:18:26;;;;;;;9.82;8.25;;;;;;;;;;12680652;28;20488;-75
2021/12/13 17:24:30;;;;;;;6.45;5.53;;;;;;;;;;12680187;28;20031;-75
2021/12/13 17:30:33;;;;;;;11.45;9.68;;;;;;;;;;12698298;28;20024;-75
2021/12/13 17:36:46;;;;;;;15.93;13.18;;;;;;;;;;12679934;28;20036;-75
2021/12/13 17:42:50;;;;;;;12.68;10.13;;;;;;;;;;12662920;28;20038;-75
2021/12/13 17:48:55;;;;;;;11.77;9.82;;;;;;;;;;12662369;28;20480;-74
2021/12/13 17:55:01;;;;;;;9.90;8.95;;;;;;;;;;12679350;28;20052;-75
2021/12/13 18:01:06;;;;;;;16.15;12.55;;;;;;;;;;12697052;28;20043;-76
2021/12/13 18:07:08;;;;;;;13.57;11.38;;;;;;;;;;12696250;28;20058;-75
2021/12/13 18:13:14;;;;;;;14.73;12.15;;;;;;;;;;12677644;28;20039;-76
2021/12/13 18:19:16;;;;;;;15.05;12.25;;;;;;;;;;12695894;28;20345;-75
2021/12/13 18:25:21;;;;;;;12.63;11.30;;;;;;;;;;12678294;28;20039;-76
2021/12/13 18:31:25;;;;;;;13.60;11.40;;;;;;;;;;12677442;28;20038;-76
2021/12/13 18:37:27;;;;;;;14.65;12.05;;;;;;;;;;12676944;28;20044;-76
2021/12/13 18:43:46;;;;;;;15.57;11.43;;;;;;;;;;12676851;28;20468;-75
2021/12/13 18:49:50;;;;;;;16.70;13.35;;;;;;;;;;12694575;28;20051;-74
2021/12/13 18:55:53;;;;;;;14.45;12.30;;;;;;;;;;12659755;28;20101;-74
2021/12/13 19:01:57;;;;;;;11.60;10.38;;;;;;;;;;12695026;28;20149;-74
2021/12/13 19:08:02;;;;;;;7.32;6.60;;;;;;;;;;12694401;28;20114;-76
2021/12/13 19:14:07;;;;;;;14.00;12.05;;;;;;;;;;12659030;28;20040;-77
2021/12/13 19:20:22;;;;;;;17.30;14.77;;;;;;;;;;12676072;28;20039;-77
2021/12/13 19:26:27;;;;;;;19.08;17.02;;;;;;;;;;12682082;28;20035;-77
2021/12/13 19:32:30;;;;;;;17.40;15.27;;;;;;;;;;12704981;28;20035;-78
2021/12/13 19:38:38;;;;;;;20.38;18.20;;;;;;;;;;12670054;28;20044;-77
2021/12/13 19:44:45;;;;;;;21.17;18.13;;;;;;;;;;12684951;28;20038;-76
2021/12/13 19:50:57;;;;;;;50.30;35.25;;;;;;;;;;12685462;28;20051;-77
2021/12/13 19:57:08;;;;;;;37.90;30.08;;;;;;;;;;12702959;28;20043;-76
2021/12/13 20:03:20;;;;;;;26.15;22.17;;;;;;;;;;12684532;28;20504;-78
2021/12/13 20:09:29;;;;;;;23.00;18.20;;;;;;;;;;12684162;28;20031;-76
2021/12/13 20:15:38;;;;;;;25.40;22.52;;;;;;;;;;12702127;28;20039;-76
2021/12/13 20:21:42;;;;;;;26.10;22.15;;;;;;;;;;12702628;28;20028;-77
2021/12/13 20:27:44;;;;;;;23.33;20.67;;;;;;;;;;12701405;28;20039;-77
2021/12/13 20:39:10;;;;;;;26.40;22.35;;;;;;;;;;12637610;28;20539;-76
2021/12/13 20:45:16;;;;;;;24.85;21.40;;;;;;;;;;12602890;28;20041;-77
2021/12/13 20:51:23;;;;;;;26.38;23.52;;;;;;;;;;12637674;28;20044;-77
2021/12/13 20:57:28;;;;;;;31.40;27.73;;;;;;;;;;12618354;28;20044;-76
2021/12/13 21:03:45;;;;;;;37.50;32.22;;;;;;;;;;12636342;28;20524;-75
2021/12/13 21:09:53;;;;;;;37.85;33.72;;;;;;;;;;12636434;28;20028;-74
2021/12/13 21:15:58;;;;;;;38.55;34.30;;;;;;;;;;12617859;28;20047;-75
2021/12/13 21:22:11;;;;;;;31.58;28.17;;;;;;;;;;12617793;28;20508;-75
2021/12/13 21:28:18;;;;;;;31.23;27.77;;;;;;;;;;12635825;28;20036;-75
2021/12/13 21:34:36;;;;;;;29.05;26.02;;;;;;;;;;12635028;28;20071;-75
2021/12/13 21:40:41;;;;;;;32.55;29.25;;;;;;;;;;12635652;28;20485;-75
2021/12/13 21:47:06;;;;;;;31.05;27.83;;;;;;;;;;12603689;28;20055;-75
2021/12/13 21:53:10;;;;;;;31.60;28.30;;;;;;;;;;12587732;28;20041;-74
2021/12/13 21:59:17;;;;;;;31.15;28.02;;;;;;;;;;12582679;28;20028;-75
2021/12/13 22:05:23;;;;;;;29.50;26.33;;;;;;;;;;12582770;28;20047;-75
2021/12/13 22:11:31;;;;;;;31.75;28.52;;;;;;;;;;12565539;28;20033;-75
2021/12/13 22:17:35;;;;;;;35.25;31.40;;;;;;;;;;12581579;28;20386;-75
2021/12/13 22:23:40;;;;;;;31.80;28.48;;;;;;;;;;12599304;28;20032;-75
2021/12/13 22:29:43;;;;;;;30.60;27.48;;;;;;;;;;12599150;28;20037;-75
2021/12/13 22:35:44;;;;;;;;;;;;;;;;;;12564195;28;20052;-75
2021/12/13 22:41:48;;;;;;;36.83;32.80;;;;;;;;;;12580396;28;19931;-74
2021/12/13 22:47:50;;;;;;;33.33;29.80;;;;;;;;;;12598290;28;20043;-74
2021/12/13 22:53:52;;;;;;;36.20;32.47;;;;;;;;;;12597967;28;20047;-73
2021/12/13 22:59:54;;;;;;;34.05;30.40;;;;;;;;;;12596517;28;20025;-74
2021/12/13 23:05:57;;;;;;;34.65;30.98;;;;;;;;;;12597920;28;20041;-74
2021/12/13 23:18:34;;;;;;;33.10;29.83;;;;;;;;;;12572614;28;20055;-74
2021/12/13 23:24:36;;;;;;;31.48;28.20;;;;;;;;;;12596034;28;20032;-73
2021/12/13 23:30:42;;;;;;;34.92;31.13;;;;;;;;;;12561483;28;20044;-73
2021/12/13 23:36:50;;;;;;;32.05;28.65;;;;;;;;;;12577427;28;20057;-75
2021/12/13 23:49:13;;;;;;;35.67;30.48;;;;;;;;;;12577366;28;20040;-74
2021/12/13 23:55:17;;;;;;;34.00;30.52;;;;;;;;;;12594871;28;20044;-75
